createdAt,value
2023-03-01T00:01:40.989Z,-3.28
2023-03-01T00:04:08.467Z,-3.31
2023-03-01T00:06:36.778Z,-3.35
2023-03-01T00:09:05.008Z,-3.39
2023-03-01T00:11:34.445Z,-3.42
2023-03-01T00:14:03.479Z,-3.45
2023-03-01T00:16:35.638Z,-3.41
2023-03-01T00:19:03.734Z,-3.37
2023-03-01T00:21:31.122Z,-3.35
2023-03-01T00:23:59.302Z,-3.30
2023-03-01T00:26:27.544Z,-3.36
2023-03-01T00:28:58.592Z,-3.50
2023-03-01T00:31:30.412Z,-3.53
2023-03-01T00:34:04.729Z,-3.59
2023-03-01T00:36:36.022Z,-3.52
2023-03-01T00:39:05.906Z,-3.53
2023-03-01T00:41:34.924Z,-3.44
2023-03-01T00:44:03.185Z,-3.42
2023-03-01T00:46:31.836Z,-3.44
2023-03-01T00:48:59.758Z,-3.51
2023-03-01T00:51:29.260Z,-3.53
2023-03-01T00:54:01.572Z,-3.48
2023-03-01T00:56:30.205Z,-3.53
2023-03-01T00:58:57.725Z,-3.63
2023-03-01T01:01:32.596Z,-3.69
2023-03-01T01:04:06.384Z,-3.88
2023-03-01T01:06:44.959Z,-4.00
2023-03-01T01:09:19.691Z,-3.94
2023-03-01T01:11:51.180Z,-3.90
2023-03-01T01:14:19.534Z,-3.83
2023-03-01T01:16:46.910Z,-3.83
2023-03-01T01:19:14.698Z,-3.80
2023-03-01T01:21:44.269Z,-3.81
2023-03-01T01:24:12.358Z,-3.92
2023-03-01T01:26:39.722Z,-3.98
2023-03-01T01:29:08.000Z,-4.04
2023-03-01T01:31:37.012Z,-4.04
2023-03-01T01:34:07.037Z,-3.93
2023-03-01T01:36:36.064Z,-3.89
2023-03-01T01:39:04.356Z,-3.93
2023-03-01T01:41:31.817Z,-3.99
2023-03-01T01:44:24.574Z,-4.04
2023-03-01T01:47:02.156Z,-4.12
2023-03-01T01:49:44.690Z,-4.25
2023-03-01T01:52:25.435Z,-3.99
2023-03-01T01:55:01.258Z,-3.91
2023-03-01T01:57:46.017Z,-3.79
2023-03-01T02:00:22.578Z,-3.77
2023-03-01T02:02:57.555Z,-3.93
2023-03-01T02:05:56.702Z,-4.02
2023-03-01T02:08:31.441Z,-4.07
2023-03-01T02:11:00.808Z,-4.16
2023-03-01T02:13:29.492Z,-4.08
2023-03-01T02:15:57.133Z,-4.00
2023-03-01T02:18:25.938Z,-3.98
2023-03-01T02:21:46.256Z,-4.01
2023-03-01T02:24:47.232Z,-3.96
2023-03-01T02:27:14.766Z,-3.93
2023-03-01T02:29:44.994Z,-3.91
2023-03-01T02:32:13.437Z,-3.99
2023-03-01T02:34:41.067Z,-4.11
2023-03-01T02:37:21.564Z,-4.34
2023-03-01T02:39:51.585Z,-4.41
2023-03-01T02:42:27.436Z,-4.42
2023-03-01T02:44:54.878Z,-4.45
2023-03-01T02:47:22.181Z,-4.38
2023-03-01T02:49:49.410Z,-4.40
2023-03-01T02:52:42.132Z,-4.25
2023-03-01T02:55:14.911Z,-4.39
2023-03-01T02:57:45.752Z,-4.50
2023-03-01T03:00:26.177Z,-4.48
2023-03-01T03:02:55.360Z,-4.47
2023-03-01T03:05:29.567Z,-4.43
2023-03-01T03:08:00.868Z,-4.43
2023-03-01T03:10:32.196Z,-4.43
2023-03-01T03:13:12.020Z,-4.43
2023-03-01T03:15:40.119Z,-4.41
2023-03-01T03:18:11.921Z,-4.45
2023-03-01T03:20:42.911Z,-4.40
2023-03-01T03:23:10.501Z,-4.33
2023-03-01T03:25:38.902Z,-4.37
2023-03-01T03:28:10.956Z,-4.44
2023-03-01T03:30:42.179Z,-4.43
2023-03-01T03:33:13.657Z,-4.50
2023-03-01T03:35:48.934Z,-4.56
2023-03-01T03:38:22.936Z,-4.54
2023-03-01T03:41:09.620Z,-4.39
2023-03-01T03:43:39.499Z,-4.36
2023-03-01T03:46:08.197Z,-4.36
2023-03-01T03:48:42.230Z,-4.59
2023-03-01T03:51:13.933Z,-4.66
2023-03-01T03:53:41.770Z,-4.73
2023-03-01T03:56:09.368Z,-4.77
2023-03-01T03:58:37.430Z,-4.97
2023-03-01T04:01:05.458Z,-4.94
2023-03-01T04:03:36.028Z,-4.89
2023-03-01T04:06:05.274Z,-4.79
2023-03-01T04:08:33.138Z,-4.90
2023-03-01T04:11:23.926Z,-4.93
2023-03-01T04:13:52.284Z,-5.00
2023-03-01T04:16:20.203Z,-4.97
2023-03-01T04:18:48.590Z,-4.96
2023-03-01T04:21:16.151Z,-4.95
2023-03-01T04:23:43.884Z,-4.97
2023-03-01T04:26:11.318Z,-5.01
2023-03-01T04:28:44.015Z,-4.90
2023-03-01T04:31:17.397Z,-4.94
2023-03-01T04:33:53.750Z,-4.99
2023-03-01T04:36:24.810Z,-4.99
2023-03-01T04:38:53.117Z,-4.97
2023-03-01T04:41:23.253Z,-4.88
2023-03-01T04:43:50.936Z,-4.85
2023-03-01T04:46:21.722Z,-4.83
2023-03-01T04:48:49.938Z,-4.82
2023-03-01T04:51:17.726Z,-4.82
2023-03-01T04:53:45.835Z,-4.62
2023-03-01T04:56:15.015Z,-4.60
2023-03-01T04:58:43.096Z,-4.69
2023-03-01T05:01:17.186Z,-4.75
2023-03-01T05:03:46.523Z,-4.70
2023-03-01T05:06:14.304Z,-4.68
2023-03-01T05:08:42.667Z,-4.70
2023-03-01T05:11:10.547Z,-4.72
2023-03-01T05:13:40.298Z,-4.65
2023-03-01T05:16:12.932Z,-4.61
2023-03-01T05:18:41.535Z,-4.57
2023-03-01T05:21:18.370Z,-4.56
2023-03-01T05:23:47.909Z,-4.45
2023-03-01T05:26:27.898Z,-4.27
2023-03-01T05:29:00.219Z,-4.18
2023-03-01T05:31:28.797Z,-4.19
2023-03-01T05:33:56.055Z,-4.50
2023-03-01T05:36:23.360Z,-4.76
2023-03-01T05:38:50.593Z,-4.78
2023-03-01T05:41:18.133Z,-4.83
2023-03-01T05:43:46.169Z,-4.99
2023-03-01T05:46:16.421Z,-4.97
2023-03-01T05:48:43.802Z,-4.95
2023-03-01T05:51:11.269Z,-4.89
2023-03-01T05:53:38.457Z,-4.68
2023-03-01T05:56:06.185Z,-4.39
2023-03-01T05:58:33.546Z,-4.24
2023-03-01T06:01:00.825Z,-4.12
2023-03-01T06:03:28.182Z,-3.99
2023-03-01T06:05:59.243Z,-3.66
2023-03-01T06:08:28.299Z,-3.51
2023-03-01T06:10:55.819Z,-3.31
2023-03-01T06:13:24.607Z,-3.05
2023-03-01T06:15:52.953Z,-2.87
2023-03-01T06:18:20.356Z,-2.53
2023-03-01T06:20:55.375Z,-2.33
2023-03-01T06:23:24.188Z,-1.94
2023-03-01T06:25:51.892Z,-1.26
2023-03-01T06:28:19.122Z,-0.59
2023-03-01T06:30:47.111Z,0.55
2023-03-01T06:33:15.152Z,1.41
2023-03-01T06:35:42.655Z,2.06
2023-03-01T06:38:10.485Z,2.95
2023-03-01T06:40:37.659Z,3.45
2023-03-01T06:43:05.354Z,3.58
2023-03-01T06:45:33.407Z,3.71
2023-03-01T06:48:08.378Z,3.78
2023-03-01T06:50:39.318Z,4.32
2023-03-01T06:53:06.761Z,5.17
2023-03-01T06:55:34.131Z,5.28
2023-03-01T06:58:03.056Z,6.25
2023-03-01T07:00:31.013Z,6.23
2023-03-01T07:03:03.571Z,5.69
2023-03-01T07:05:31.754Z,5.17
2023-03-01T07:07:59.124Z,4.27
2023-03-01T07:10:26.479Z,3.70
2023-03-01T07:13:00.673Z,3.91
2023-03-01T07:15:28.905Z,3.17
2023-03-01T07:17:57.358Z,3.02
2023-03-01T07:20:26.304Z,2.93
2023-03-01T07:22:55.848Z,3.09
2023-03-01T07:25:23.372Z,3.07
2023-03-01T07:27:53.469Z,3.10
2023-03-01T07:30:22.343Z,3.47
2023-03-01T07:32:49.858Z,3.92
2023-03-01T07:35:17.317Z,4.26
2023-03-01T07:37:45.078Z,4.48
2023-03-01T07:40:13.141Z,5.02
2023-03-01T07:42:40.440Z,5.60
2023-03-01T07:45:08.847Z,5.59
2023-03-01T07:47:36.176Z,7.47
2023-03-01T07:50:04.944Z,8.04
2023-03-01T07:52:32.192Z,9.47
2023-03-01T07:54:59.418Z,10.85
2023-03-01T07:57:26.724Z,10.85
2023-03-01T07:59:54.042Z,10.32
2023-03-01T08:02:21.251Z,10.06
2023-03-01T08:04:48.550Z,11.20
2023-03-01T08:07:15.693Z,11.08
2023-03-01T08:09:43.008Z,11.74
2023-03-01T08:12:10.136Z,12.40
2023-03-01T08:14:37.443Z,12.31
2023-03-01T08:17:04.699Z,13.48
2023-03-01T08:19:32.176Z,13.73
2023-03-01T08:22:00.929Z,14.13
2023-03-01T08:24:28.187Z,14.39
2023-03-01T08:26:55.813Z,14.55
2023-03-01T08:29:23.533Z,13.67
2023-03-01T08:31:51.002Z,13.60
2023-03-01T08:34:19.645Z,13.92
2023-03-01T08:36:47.793Z,15.63
2023-03-01T08:39:18.055Z,15.22
2023-03-01T08:41:47.082Z,14.17
2023-03-01T08:44:17.904Z,15.55
2023-03-01T08:46:46.654Z,15.16
2023-03-01T08:49:18.795Z,15.83
2023-03-01T08:51:47.557Z,14.86
2023-03-01T08:54:21.510Z,16.73
2023-03-01T08:56:49.856Z,17.45
2023-03-01T08:59:18.626Z,18.01
2023-03-01T09:01:46.459Z,16.95
2023-03-01T09:04:15.684Z,17.66
2023-03-01T09:06:43.164Z,17.74
2023-03-01T09:09:17.406Z,17.73
2023-03-01T09:11:47.373Z,18.52
2023-03-01T09:14:15.702Z,18.19
2023-03-01T09:16:43.717Z,17.30
2023-03-01T09:19:11.181Z,17.64
2023-03-01T09:21:41.149Z,18.56
2023-03-01T09:24:15.479Z,18.05
2023-03-01T09:26:44.047Z,16.89
2023-03-01T09:29:11.443Z,18.14
2023-03-01T09:31:39.651Z,18.88
2023-03-01T09:34:07.443Z,19.45
2023-03-01T09:36:35.152Z,17.62
2023-03-01T09:39:03.852Z,17.87
2023-03-01T09:41:49.877Z,18.91
2023-03-01T09:44:32.704Z,17.61
2023-03-01T09:47:01.029Z,18.45
2023-03-01T09:49:36.098Z,20.89
2023-03-01T09:52:26.708Z,21.06
2023-03-01T09:54:59.649Z,21.27
2023-03-01T09:57:41.970Z,19.97
2023-03-01T10:00:40.172Z,21.05
2023-03-01T10:03:29.335Z,20.35
2023-03-01T10:06:35.288Z,20.81
2023-03-01T10:09:15.163Z,21.13
2023-03-01T10:11:55.313Z,20.03
2023-03-01T10:14:48.397Z,20.96
2023-03-01T10:17:57.862Z,20.30
2023-03-01T10:20:46.006Z,19.24
2023-03-01T10:23:13.409Z,19.10
2023-03-01T10:26:12.958Z,20.08
2023-03-01T10:28:51.973Z,19.83
2023-03-01T10:31:29.671Z,19.41
2023-03-01T10:33:59.016Z,18.64
2023-03-01T10:36:26.287Z,18.39
2023-03-01T10:38:58.855Z,19.39
2023-03-01T10:41:28.622Z,19.32
2023-03-01T10:44:00.615Z,19.27
2023-03-01T10:46:33.592Z,20.35
2023-03-01T10:49:14.903Z,18.77
2023-03-01T10:51:45.928Z,18.90
2023-03-01T10:54:33.311Z,18.84
2023-03-01T10:57:06.490Z,19.21
2023-03-01T10:59:39.479Z,19.13
2023-03-01T11:02:29.802Z,19.26
2023-03-01T11:05:06.257Z,18.99
2023-03-01T11:07:49.356Z,18.42
2023-03-01T11:10:25.084Z,17.59
2023-03-01T11:12:54.455Z,17.91
2023-03-01T11:15:29.906Z,19.50
2023-03-01T11:18:08.889Z,20.81
2023-03-01T11:20:40.505Z,21.44
2023-03-01T11:23:14.024Z,21.37
2023-03-01T11:25:47.031Z,21.04
2023-03-01T11:28:19.148Z,22.02
2023-03-01T11:31:08.693Z,21.11
2023-03-01T11:34:06.218Z,21.59
2023-03-01T11:36:56.016Z,21.87
2023-03-01T11:39:39.043Z,21.88
2023-03-01T11:42:19.113Z,21.87
2023-03-01T11:44:51.619Z,21.88
2023-03-01T11:48:13.703Z,20.91
2023-03-01T11:50:49.371Z,19.99
2023-03-01T11:53:31.738Z,19.34
2023-03-01T11:56:28.622Z,18.31
2023-03-01T11:59:31.952Z,16.45
2023-03-01T12:02:27.167Z,16.16
2023-03-01T12:05:17.923Z,16.08
2023-03-01T12:07:54.183Z,16.86
2023-03-01T12:10:26.786Z,17.84
2023-03-01T12:13:19.575Z,17.17
2023-03-01T12:16:38.333Z,17.90
2023-03-01T12:19:46.797Z,17.42
2023-03-01T12:22:32.895Z,17.61
2023-03-01T12:25:19.654Z,17.33
2023-03-01T12:28:11.448Z,17.95
2023-03-01T12:31:38.582Z,17.57
2023-03-01T12:34:38.824Z,17.05
2023-03-01T12:37:48.681Z,15.50
2023-03-01T12:40:28.533Z,16.08
2023-03-01T12:43:16.667Z,16.24
2023-03-01T12:46:08.860Z,16.14
2023-03-01T12:48:53.419Z,15.77
2023-03-01T12:51:28.013Z,15.92
2023-03-01T12:53:58.145Z,15.31
2023-03-01T12:56:30.599Z,14.14
2023-03-01T12:59:26.619Z,14.65
2023-03-01T13:02:14.472Z,14.63
2023-03-01T13:05:06.251Z,14.18
2023-03-01T13:08:10.539Z,14.21
2023-03-01T13:10:58.695Z,14.50
2023-03-01T13:13:28.938Z,13.97
2023-03-01T13:15:57.721Z,13.34
2023-03-01T13:18:26.391Z,12.49
2023-03-01T13:21:00.520Z,12.33
2023-03-01T13:23:40.351Z,12.46
2023-03-01T13:26:19.588Z,12.19
2023-03-01T13:28:49.887Z,12.63
2023-03-01T13:31:16.933Z,12.01
2023-03-01T13:33:52.642Z,11.75
2023-03-01T13:36:29.151Z,11.47
2023-03-01T13:39:16.804Z,10.86
2023-03-01T13:41:43.955Z,10.67
2023-03-01T13:44:39.854Z,10.53
2023-03-01T13:47:07.245Z,10.42
2023-03-01T13:49:58.979Z,9.75
2023-03-01T13:53:19.445Z,8.66
2023-03-01T13:56:02.172Z,8.48
2023-03-01T13:58:33.517Z,8.42
2023-03-01T14:01:07.102Z,8.32
2023-03-01T14:03:42.844Z,7.94
2023-03-01T14:06:39.884Z,8.06
2023-03-01T14:09:22.587Z,7.07
2023-03-01T14:12:09.905Z,6.37
2023-03-01T14:15:05.967Z,6.56
2023-03-01T14:18:05.352Z,6.82
2023-03-01T14:20:41.300Z,6.52
2023-03-01T14:23:16.755Z,6.44
2023-03-01T14:25:59.004Z,6.55
2023-03-01T14:28:35.416Z,6.78
2023-03-01T14:31:03.667Z,6.86
2023-03-01T14:33:34.458Z,6.68
2023-03-01T14:36:06.494Z,6.54
2023-03-01T14:38:39.545Z,6.56
2023-03-01T14:41:16.886Z,6.59
2023-03-01T14:43:59.059Z,6.34
2023-03-01T14:46:34.129Z,6.40
2023-03-01T14:49:13.281Z,6.40
2023-03-01T14:51:44.030Z,6.23
2023-03-01T14:54:27.791Z,6.15
2023-03-01T14:57:00.876Z,5.98
2023-03-01T14:59:28.889Z,5.94
2023-03-01T15:01:59.255Z,6.04
2023-03-01T15:04:28.693Z,5.98
2023-03-01T15:07:05.740Z,5.94
2023-03-01T15:09:37.628Z,5.89
2023-03-01T15:12:37.056Z,5.50
2023-03-01T15:15:42.515Z,5.62
2023-03-01T15:18:28.607Z,5.64
2023-03-01T15:20:57.087Z,5.51
2023-03-01T15:23:30.952Z,5.43
2023-03-01T15:25:59.160Z,5.27
2023-03-01T15:28:38.644Z,5.25
2023-03-01T15:31:24.231Z,5.06
2023-03-01T15:33:52.449Z,5.08
2023-03-01T15:36:32.156Z,4.94
2023-03-01T15:39:01.318Z,4.94
2023-03-01T15:41:39.129Z,4.82
2023-03-01T15:44:35.035Z,4.83
2023-03-01T15:47:29.273Z,4.86
2023-03-01T15:49:58.325Z,4.67
2023-03-01T15:52:37.876Z,4.62
2023-03-01T15:55:16.644Z,4.56
2023-03-01T15:57:43.974Z,4.55
2023-03-01T16:00:14.471Z,4.41
2023-03-01T16:02:44.358Z,4.42
2023-03-01T16:05:28.297Z,4.35
2023-03-01T16:07:56.083Z,4.24
2023-03-01T16:10:24.131Z,4.18
2023-03-01T16:12:53.506Z,4.16
2023-03-01T16:15:31.764Z,4.13
2023-03-01T16:17:59.935Z,4.05
2023-03-01T16:20:30.954Z,4.00
2023-03-01T16:23:03.608Z,3.92
2023-03-01T16:25:31.309Z,3.68
2023-03-01T16:28:01.244Z,3.55
2023-03-01T16:30:28.809Z,3.40
2023-03-01T16:32:55.984Z,3.29
2023-03-01T16:35:24.497Z,3.13
2023-03-01T16:37:53.615Z,3.09
2023-03-01T16:40:28.294Z,3.03
2023-03-01T16:43:02.186Z,2.88
2023-03-01T16:45:36.791Z,2.75
2023-03-01T16:48:05.235Z,2.61
2023-03-01T16:50:32.513Z,2.63
2023-03-01T16:52:59.728Z,2.62
2023-03-01T16:55:27.033Z,2.65
2023-03-01T16:57:54.366Z,2.61
2023-03-01T17:00:23.569Z,2.54
2023-03-01T17:02:50.924Z,2.26
2023-03-01T17:05:18.566Z,2.13
2023-03-01T17:07:45.833Z,2.20
2023-03-01T17:10:13.236Z,2.23
2023-03-01T17:12:40.664Z,2.04
2023-03-01T17:15:08.429Z,2.10
2023-03-01T17:17:36.036Z,2.03
2023-03-01T17:20:05.010Z,2.00
2023-03-01T17:22:32.400Z,1.97
2023-03-01T17:24:59.970Z,1.88
2023-03-01T17:27:27.615Z,1.78
2023-03-01T17:29:54.911Z,1.63
2023-03-01T17:32:22.509Z,1.56
2023-03-01T17:34:49.782Z,1.53
2023-03-01T17:37:17.137Z,1.62
2023-03-01T17:39:44.413Z,1.73
2023-03-01T17:42:11.656Z,1.77
2023-03-01T17:44:39.120Z,1.84
2023-03-01T17:47:06.760Z,2.02
2023-03-01T17:49:34.528Z,2.07
2023-03-01T17:52:01.814Z,2.08
2023-03-01T17:54:29.167Z,2.01
2023-03-01T17:56:58.893Z,1.97
2023-03-01T17:59:31.365Z,1.89
2023-03-01T18:02:01.568Z,1.82
2023-03-01T18:04:30.149Z,1.70
2023-03-01T18:06:58.591Z,1.71
2023-03-01T18:09:28.381Z,1.71
2023-03-01T18:11:55.869Z,1.80
2023-03-01T18:14:23.604Z,1.90
2023-03-01T18:16:50.961Z,1.98
2023-03-01T18:19:18.690Z,2.00
2023-03-01T18:21:46.019Z,2.02
2023-03-01T18:24:13.474Z,1.96
2023-03-01T18:26:40.765Z,1.90
2023-03-01T18:29:08.385Z,1.77
2023-03-01T18:31:35.744Z,1.68
2023-03-01T18:34:03.843Z,1.60
2023-03-01T18:36:35.266Z,1.52
2023-03-01T18:39:05.608Z,1.49
2023-03-01T18:41:34.253Z,1.46
2023-03-01T18:44:03.768Z,1.40
2023-03-01T18:46:31.970Z,1.48
2023-03-01T18:48:59.815Z,1.45
2023-03-01T18:51:29.126Z,1.52
2023-03-01T18:54:00.976Z,1.56
2023-03-01T18:56:33.993Z,1.65
2023-03-01T18:59:02.528Z,1.64
2023-03-01T19:01:34.709Z,1.55
2023-03-01T19:04:04.753Z,1.28
2023-03-01T19:06:35.257Z,1.05
2023-03-01T19:09:03.362Z,0.63
2023-03-01T19:11:33.503Z,0.35
2023-03-01T19:14:02.537Z,0.09
2023-03-01T19:16:32.402Z,0.08
2023-03-01T19:19:03.317Z,0.05
2023-03-01T19:21:32.508Z,-0.14
2023-03-01T19:24:02.507Z,-0.16
2023-03-01T19:26:31.431Z,0.09
2023-03-01T19:28:59.249Z,0.15
2023-03-01T19:31:29.713Z,0.09
2023-03-01T19:34:10.964Z,0.06
2023-03-01T19:36:44.046Z,-0.05
2023-03-01T19:39:14.007Z,-0.08
2023-03-01T19:41:42.739Z,-0.02
2023-03-01T19:44:10.452Z,0.02
2023-03-01T19:46:38.073Z,0.04
2023-03-01T19:49:06.377Z,0.13
2023-03-01T19:51:36.218Z,0.07
2023-03-01T19:54:05.996Z,0.00
2023-03-01T19:56:34.706Z,0.01
2023-03-01T19:59:04.499Z,0.05
2023-03-01T20:01:34.808Z,0.02
2023-03-01T20:04:03.834Z,0.02
2023-03-01T20:06:31.643Z,-0.07
2023-03-01T20:09:02.376Z,-0.05
2023-03-01T20:11:34.542Z,0.01
2023-03-01T20:14:02.319Z,-0.04
2023-03-01T20:16:29.907Z,-0.18
2023-03-01T20:19:00.615Z,-0.17
2023-03-01T20:21:28.547Z,-0.36
2023-03-01T20:23:55.897Z,-0.51
2023-03-01T20:26:25.474Z,-0.53
2023-03-01T20:28:57.255Z,-0.49
2023-03-01T20:31:30.037Z,-0.62
2023-03-01T20:33:59.135Z,-0.62
2023-03-01T20:36:28.294Z,-0.67
2023-03-01T20:38:56.287Z,-0.71
2023-03-01T20:41:26.469Z,-0.70
2023-03-01T20:43:58.743Z,-0.73
2023-03-01T20:46:27.137Z,-0.62
2023-03-01T20:48:54.602Z,-0.46
2023-03-01T20:51:22.039Z,-0.49
2023-03-01T20:53:49.552Z,-0.58
2023-03-01T20:56:19.088Z,-0.71
2023-03-01T20:59:04.519Z,-0.82
2023-03-01T21:01:32.028Z,-0.82
2023-03-01T21:03:59.295Z,-0.88
2023-03-01T21:06:26.608Z,-0.99
2023-03-01T21:08:56.052Z,-0.99
2023-03-01T21:11:27.093Z,-1.00
2023-03-01T21:13:55.705Z,-1.11
2023-03-01T21:16:23.590Z,-1.22
2023-03-01T21:18:51.200Z,-1.31
2023-03-01T21:21:22.457Z,-1.42
2023-03-01T21:23:49.905Z,-1.34
2023-03-01T21:26:24.119Z,-1.27
2023-03-01T21:28:59.175Z,-1.26
2023-03-01T21:31:34.130Z,-1.27
2023-03-01T21:34:05.871Z,-1.31
2023-03-01T21:36:34.799Z,-1.48
2023-03-01T21:39:02.995Z,-1.62
2023-03-01T21:41:34.533Z,-1.71
2023-03-01T21:44:03.801Z,-1.80
2023-03-01T21:46:36.656Z,-1.82
2023-03-01T21:49:05.250Z,-1.85
2023-03-01T21:51:32.988Z,-1.86
2023-03-01T21:54:03.749Z,-1.90
2023-03-01T21:56:34.533Z,-1.92
2023-03-01T21:59:02.206Z,-1.89
2023-03-01T22:01:30.292Z,-1.66
2023-03-01T22:04:00.340Z,-1.69
2023-03-01T22:06:31.635Z,-1.73
2023-03-01T22:09:05.954Z,-1.73
2023-03-01T22:11:38.142Z,-1.93
2023-03-01T22:14:06.323Z,-1.92
2023-03-01T22:16:37.038Z,-1.82
2023-03-01T22:19:06.424Z,-1.83
2023-03-01T22:21:34.599Z,-1.92
2023-03-01T22:24:02.271Z,-1.96
2023-03-01T22:26:37.389Z,-1.98
2023-03-01T22:29:12.416Z,-2.04
2023-03-01T22:31:41.013Z,-2.16
2023-03-01T22:34:08.796Z,-2.27
2023-03-01T22:36:36.750Z,-2.35
2023-03-01T22:39:04.448Z,-2.49
2023-03-01T22:41:44.039Z,-2.66
2023-03-01T22:44:18.658Z,-2.51
2023-03-01T22:46:47.059Z,-2.48
2023-03-01T22:49:14.598Z,-2.39
2023-03-01T22:51:43.595Z,-2.38
2023-03-01T22:54:11.643Z,-2.36
2023-03-01T22:56:40.145Z,-2.47
2023-03-01T22:59:11.088Z,-2.55
2023-03-01T23:01:40.714Z,-2.61
2023-03-01T23:04:08.632Z,-2.54
2023-03-01T23:06:50.597Z,-2.51
2023-03-01T23:09:20.874Z,-2.58
2023-03-01T23:11:48.874Z,-2.60
2023-03-01T23:14:16.465Z,-2.63
2023-03-01T23:16:43.773Z,-2.63
2023-03-01T23:19:11.078Z,-2.68
2023-03-01T23:21:38.399Z,-2.73
2023-03-01T23:24:06.096Z,-2.70
2023-03-01T23:26:33.659Z,-2.67
2023-03-01T23:29:01.145Z,-2.56
2023-03-01T23:31:30.193Z,-2.48
2023-03-01T23:33:57.733Z,-2.47
2023-03-01T23:36:34.407Z,-2.55
2023-03-01T23:39:06.850Z,-2.74
2023-03-01T23:41:35.359Z,-2.65
2023-03-01T23:44:05.221Z,-2.65
2023-03-01T23:46:36.150Z,-2.67
2023-03-01T23:49:04.705Z,-2.72
2023-03-01T23:51:32.105Z,-2.89
2023-03-01T23:54:05.481Z,-2.93
2023-03-01T23:56:36.763Z,-2.94
2023-03-01T23:59:19.764Z,-3.13
